sensor_id;sensor_type;location;lat;lon;timestamp;P1;durP1;ratioP1;P2;durP2;ratioP2
22648;SDS011;11491;41.942;24.220;2024-01-15T00:00:53;32.20;;;17.80;;
22648;SDS011;11491;41.942;24.220;2024-01-15T00:03:20;40.83;;;21.37;;
22648;SDS011;11491;41.942;24.220;2024-01-15T00:05:47;41.03;;;23.53;;
22648;SDS011;11491;41.942;24.220;2024-01-15T00:08:13;40.20;;;22.10;;
22648;SDS011;11491;41.942;24.220;2024-01-15T00:10:40;35.67;;;20.13;;
22648;SDS011;11491;41.942;24.220;2024-01-15T00:13:07;27.80;;;16.37;;
22648;SDS011;11491;41.942;24.220;2024-01-15T00:15:35;23.70;;;13.30;;
22648;SDS011;11491;41.942;24.220;2024-01-15T00:18:02;17.53;;;11.30;;
22648;SDS011;11491;41.942;24.220;2024-01-15T00:20:29;14.27;;;9.57;;
22648;SDS011;11491;41.942;24.220;2024-01-15T00:22:55;23.93;;;14.23;;
22648;SDS011;11491;41.942;24.220;2024-01-15T00:25:22;23.20;;;13.00;;
22648;SDS011;11491;41.942;24.220;2024-01-15T00:27:49;26.23;;;15.10;;
22648;SDS011;11491;41.942;24.220;2024-01-15T00:30:15;35.20;;;16.87;;
22648;SDS011;11491;41.942;24.220;2024-01-15T00:32:43;16.73;;;9.57;;
22648;SDS011;11491;41.942;24.220;2024-01-15T00:35:10;18.23;;;9.40;;
22648;SDS011;11491;41.942;24.220;2024-01-15T00:37:36;10.37;;;5.60;;
22648;SDS011;11491;41.942;24.220;2024-01-15T00:40:04;23.67;;;12.60;;
22648;SDS011;11491;41.942;24.220;2024-01-15T00:42:32;22.10;;;10.57;;
22648;SDS011;11491;41.942;24.220;2024-01-15T00:44:59;21.70;;;12.43;;
22648;SDS011;11491;41.942;24.220;2024-01-15T00:47:26;23.60;;;13.27;;
22648;SDS011;11491;41.942;24.220;2024-01-15T00:49:54;23.70;;;13.53;;
22648;SDS011;11491;41.942;24.220;2024-01-15T00:52:21;23.63;;;13.30;;
22648;SDS011;11491;41.942;24.220;2024-01-15T00:54:47;28.90;;;16.77;;
22648;SDS011;11491;41.942;24.220;2024-01-15T00:57:14;23.00;;;13.00;;
22648;SDS011;11491;41.942;24.220;2024-01-15T00:59:41;15.67;;;8.63;;
22648;SDS011;11491;41.942;24.220;2024-01-15T01:02:08;11.03;;;6.77;;
22648;SDS011;11491;41.942;24.220;2024-01-15T01:04:34;15.37;;;7.77;;
22648;SDS011;11491;41.942;24.220;2024-01-15T01:07:02;14.33;;;8.00;;
22648;SDS011;11491;41.942;24.220;2024-01-15T01:09:29;15.30;;;8.10;;
22648;SDS011;11491;41.942;24.220;2024-01-15T01:11:56;13.47;;;7.53;;
22648;SDS011;11491;41.942;24.220;2024-01-15T01:14:23;18.27;;;8.93;;
22648;SDS011;11491;41.942;24.220;2024-01-15T01:16:49;23.43;;;9.93;;
22648;SDS011;11491;41.942;24.220;2024-01-15T01:19:16;35.83;;;15.70;;
22648;SDS011;11491;41.942;24.220;2024-01-15T01:21:43;31.60;;;14.93;;
22648;SDS011;11491;41.942;24.220;2024-01-15T01:24:11;26.23;;;12.03;;
22648;SDS011;11491;41.942;24.220;2024-01-15T01:26:38;22.13;;;10.33;;
22648;SDS011;11491;41.942;24.220;2024-01-15T01:29:04;22.27;;;9.73;;
22648;SDS011;11491;41.942;24.220;2024-01-15T01:31:31;18.43;;;8.57;;
22648;SDS011;11491;41.942;24.220;2024-01-15T01:33:58;14.17;;;7.00;;
22648;SDS011;11491;41.942;24.220;2024-01-15T01:36:25;12.87;;;6.07;;
22648;SDS011;11491;41.942;24.220;2024-01-15T01:38:51;11.23;;;5.93;;
22648;SDS011;11491;41.942;24.220;2024-01-15T01:41:19;17.27;;;9.23;;
22648;SDS011;11491;41.942;24.220;2024-01-15T01:43:46;20.17;;;10.20;;
22648;SDS011;11491;41.942;24.220;2024-01-15T01:46:13;20.03;;;11.50;;
22648;SDS011;11491;41.942;24.220;2024-01-15T01:48:40;23.43;;;11.07;;
22648;SDS011;11491;41.942;24.220;2024-01-15T01:51:07;17.07;;;9.07;;
22648;SDS011;11491;41.942;24.220;2024-01-15T01:53:34;19.13;;;9.67;;
22648;SDS011;11491;41.942;24.220;2024-01-15T01:56:02;15.33;;;8.07;;
22648;SDS011;11491;41.942;24.220;2024-01-15T01:58:32;8.97;;;5.37;;
22648;SDS011;11491;41.942;24.220;2024-01-15T02:00:59;9.67;;;5.93;;
22648;SDS011;11491;41.942;24.220;2024-01-15T02:03:26;19.23;;;10.47;;
22648;SDS011;11491;41.942;24.220;2024-01-15T02:05:53;19.57;;;9.53;;
22648;SDS011;11491;41.942;24.220;2024-01-15T02:08:21;14.53;;;8.00;;
22648;SDS011;11491;41.942;24.220;2024-01-15T02:10:48;12.63;;;8.40;;
22648;SDS011;11491;41.942;24.220;2024-01-15T02:13:15;13.83;;;7.70;;
22648;SDS011;11491;41.942;24.220;2024-01-15T02:15:43;13.33;;;6.70;;
22648;SDS011;11491;41.942;24.220;2024-01-15T02:18:10;10.33;;;6.40;;
22648;SDS011;11491;41.942;24.220;2024-01-15T02:20:36;11.57;;;6.57;;
22648;SDS011;11491;41.942;24.220;2024-01-15T02:23:06;12.13;;;7.23;;
22648;SDS011;11491;41.942;24.220;2024-01-15T02:25:35;15.23;;;7.80;;
22648;SDS011;11491;41.942;24.220;2024-01-15T02:28:02;13.17;;;8.10;;
22648;SDS011;11491;41.942;24.220;2024-01-15T02:30:30;14.13;;;8.00;;
22648;SDS011;11491;41.942;24.220;2024-01-15T02:32:58;24.33;;;11.63;;
22648;SDS011;11491;41.942;24.220;2024-01-15T02:35:24;25.53;;;12.40;;
22648;SDS011;11491;41.942;24.220;2024-01-15T02:37:51;23.17;;;12.00;;
22648;SDS011;11491;41.942;24.220;2024-01-15T02:40:19;23.47;;;10.90;;
22648;SDS011;11491;41.942;24.220;2024-01-15T02:42:46;24.03;;;12.60;;
22648;SDS011;11491;41.942;24.220;2024-01-15T02:45:13;20.10;;;11.97;;
22648;SDS011;11491;41.942;24.220;2024-01-15T02:47:39;22.03;;;11.47;;
22648;SDS011;11491;41.942;24.220;2024-01-15T02:50:06;21.80;;;10.67;;
22648;SDS011;11491;41.942;24.220;2024-01-15T02:52:33;15.20;;;8.47;;
22648;SDS011;11491;41.942;24.220;2024-01-15T02:55:00;15.90;;;8.07;;
22648;SDS011;11491;41.942;24.220;2024-01-15T02:57:28;19.97;;;9.30;;
22648;SDS011;11491;41.942;24.220;2024-01-15T02:59:55;15.77;;;8.33;;
22648;SDS011;11491;41.942;24.220;2024-01-15T03:02:21;14.80;;;8.53;;
22648;SDS011;11491;41.942;24.220;2024-01-15T03:04:48;14.43;;;7.70;;
22648;SDS011;11491;41.942;24.220;2024-01-15T03:07:15;14.50;;;7.27;;
22648;SDS011;11491;41.942;24.220;2024-01-15T03:09:42;29.17;;;15.43;;
22648;SDS011;11491;41.942;24.220;2024-01-15T03:12:09;28.20;;;15.80;;
22648;SDS011;11491;41.942;24.220;2024-01-15T03:14:37;18.67;;;10.33;;
22648;SDS011;11491;41.942;24.220;2024-01-15T03:17:04;27.87;;;14.17;;
22648;SDS011;11491;41.942;24.220;2024-01-15T03:19:31;18.93;;;10.80;;
22648;SDS011;11491;41.942;24.220;2024-01-15T03:22:00;13.23;;;8.27;;
22648;SDS011;11491;41.942;24.220;2024-01-15T03:24:28;18.93;;;10.47;;
22648;SDS011;11491;41.942;24.220;2024-01-15T03:26:55;16.13;;;8.47;;
22648;SDS011;11491;41.942;24.220;2024-01-15T03:29:22;13.67;;;8.13;;
22648;SDS011;11491;41.942;24.220;2024-01-15T03:31:50;14.43;;;8.23;;
22648;SDS011;11491;41.942;24.220;2024-01-15T03:34:17;13.50;;;7.13;;
22648;SDS011;11491;41.942;24.220;2024-01-15T03:36:44;12.50;;;7.57;;
22648;SDS011;11491;41.942;24.220;2024-01-15T03:39:10;12.93;;;7.33;;
22648;SDS011;11491;41.942;24.220;2024-01-15T03:41:37;9.30;;;4.60;;
22648;SDS011;11491;41.942;24.220;2024-01-15T03:44:04;5.73;;;3.63;;
22648;SDS011;11491;41.942;24.220;2024-01-15T03:46:31;9.63;;;5.23;;
22648;SDS011;11491;41.942;24.220;2024-01-15T03:48:59;8.40;;;4.90;;
22648;SDS011;11491;41.942;24.220;2024-01-15T03:51:25;8.23;;;5.17;;
22648;SDS011;11491;41.942;24.220;2024-01-15T03:53:52;7.53;;;4.60;;
22648;SDS011;11491;41.942;24.220;2024-01-15T03:56:19;8.77;;;6.10;;
22648;SDS011;11491;41.942;24.220;2024-01-15T03:58:46;13.03;;;8.07;;
22648;SDS011;11491;41.942;24.220;2024-01-15T04:01:12;312.07;;;114.43;;
22648;SDS011;11491;41.942;24.220;2024-01-15T04:03:39;107.03;;;46.77;;
22648;SDS011;11491;41.942;24.220;2024-01-15T04:06:07;54.53;;;26.70;;
22648;SDS011;11491;41.942;24.220;2024-01-15T04:08:34;54.93;;;27.23;;
22648;SDS011;11491;41.942;24.220;2024-01-15T04:11:01;60.60;;;31.33;;
22648;SDS011;11491;41.942;24.220;2024-01-15T04:13:27;35.27;;;20.17;;
22648;SDS011;11491;41.942;24.220;2024-01-15T04:15:54;28.30;;;17.47;;
22648;SDS011;11491;41.942;24.220;2024-01-15T04:18:21;23.53;;;14.23;;
22648;SDS011;11491;41.942;24.220;2024-01-15T04:20:48;23.00;;;14.30;;
22648;SDS011;11491;41.942;24.220;2024-01-15T04:23:16;23.83;;;14.73;;
22648;SDS011;11491;41.942;24.220;2024-01-15T04:25:42;12.20;;;7.27;;
22648;SDS011;11491;41.942;24.220;2024-01-15T04:28:11;12.27;;;8.00;;
22648;SDS011;11491;41.942;24.220;2024-01-15T04:30:37;12.53;;;8.63;;
22648;SDS011;11491;41.942;24.220;2024-01-15T04:33:04;16.67;;;10.20;;
22648;SDS011;11491;41.942;24.220;2024-01-15T04:35:31;16.80;;;8.83;;
22648;SDS011;11491;41.942;24.220;2024-01-15T04:37:58;22.13;;;11.83;;
22648;SDS011;11491;41.942;24.220;2024-01-15T04:40:26;20.17;;;10.93;;
22648;SDS011;11491;41.942;24.220;2024-01-15T04:42:53;31.50;;;17.13;;
22648;SDS011;11491;41.942;24.220;2024-01-15T04:45:19;38.73;;;21.53;;
22648;SDS011;11491;41.942;24.220;2024-01-15T04:47:47;44.17;;;24.33;;
22648;SDS011;11491;41.942;24.220;2024-01-15T04:50:14;82.47;;;41.97;;
22648;SDS011;11491;41.942;24.220;2024-01-15T04:52:41;91.73;;;44.73;;
22648;SDS011;11491;41.942;24.220;2024-01-15T04:55:08;89.87;;;47.90;;
22648;SDS011;11491;41.942;24.220;2024-01-15T04:57:36;88.43;;;48.47;;
22648;SDS011;11491;41.942;24.220;2024-01-15T05:00:03;92.80;;;46.47;;
22648;SDS011;11491;41.942;24.220;2024-01-15T05:02:31;72.40;;;38.97;;
22648;SDS011;11491;41.942;24.220;2024-01-15T05:04:58;72.57;;;37.57;;
22648;SDS011;11491;41.942;24.220;2024-01-15T05:07:24;78.43;;;38.13;;
22648;SDS011;11491;41.942;24.220;2024-01-15T05:09:51;63.00;;;35.40;;
22648;SDS011;11491;41.942;24.220;2024-01-15T05:12:18;35.60;;;18.77;;
22648;SDS011;11491;41.942;24.220;2024-01-15T05:14:46;50.23;;;29.00;;
22648;SDS011;11491;41.942;24.220;2024-01-15T05:17:12;47.07;;;29.57;;
22648;SDS011;11491;41.942;24.220;2024-01-15T05:19:39;33.83;;;19.13;;
22648;SDS011;11491;41.942;24.220;2024-01-15T05:22:06;29.13;;;18.27;;
22648;SDS011;11491;41.942;24.220;2024-01-15T05:24:33;41.00;;;25.80;;
22648;SDS011;11491;41.942;24.220;2024-01-15T05:26:59;117.70;;;67.20;;
22648;SDS011;11491;41.942;24.220;2024-01-15T05:29:26;50.17;;;30.90;;
22648;SDS011;11491;41.942;24.220;2024-01-15T05:31:54;93.23;;;50.40;;
22648;SDS011;11491;41.942;24.220;2024-01-15T05:34:21;81.07;;;46.03;;
22648;SDS011;11491;41.942;24.220;2024-01-15T05:36:48;116.47;;;64.33;;
22648;SDS011;11491;41.942;24.220;2024-01-15T05:39:13;178.60;;;98.40;;
22648;SDS011;11491;41.942;24.220;2024-01-15T05:41:40;77.90;;;46.03;;
22648;SDS011;11491;41.942;24.220;2024-01-15T05:44:07;74.90;;;44.17;;
22648;SDS011;11491;41.942;24.220;2024-01-15T05:46:35;96.23;;;55.97;;
22648;SDS011;11491;41.942;24.220;2024-01-15T05:49:03;117.97;;;68.00;;
22648;SDS011;11491;41.942;24.220;2024-01-15T05:51:29;128.67;;;75.80;;
22648;SDS011;11491;41.942;24.220;2024-01-15T05:53:56;131.23;;;76.30;;
22648;SDS011;11491;41.942;24.220;2024-01-15T05:56:23;124.57;;;79.33;;
22648;SDS011;11491;41.942;24.220;2024-01-15T05:58:50;115.60;;;72.37;;
22648;SDS011;11491;41.942;24.220;2024-01-15T06:01:17;179.47;;;88.77;;
22648;SDS011;11491;41.942;24.220;2024-01-15T06:03:43;152.53;;;82.70;;
22648;SDS011;11491;41.942;24.220;2024-01-15T06:06:11;168.57;;;89.83;;
22648;SDS011;11491;41.942;24.220;2024-01-15T06:08:39;169.33;;;97.30;;
22648;SDS011;11491;41.942;24.220;2024-01-15T06:11:06;172.37;;;95.00;;
22648;SDS011;11491;41.942;24.220;2024-01-15T06:13:33;136.67;;;78.97;;
22648;SDS011;11491;41.942;24.220;2024-01-15T06:19:19;109.27;;;67.03;;
22648;SDS011;11491;41.942;24.220;2024-01-15T06:21:47;99.63;;;58.97;;
22648;SDS011;11491;41.942;24.220;2024-01-15T06:24:14;185.93;;;105.97;;
22648;SDS011;11491;41.942;24.220;2024-01-15T06:26:43;243.43;;;130.63;;
22648;SDS011;11491;41.942;24.220;2024-01-15T06:29:09;340.03;;;178.80;;
22648;SDS011;11491;41.942;24.220;2024-01-15T06:31:36;332.17;;;184.10;;
22648;SDS011;11491;41.942;24.220;2024-01-15T06:34:03;309.90;;;178.73;;
22648;SDS011;11491;41.942;24.220;2024-01-15T06:36:29;198.27;;;118.17;;
22648;SDS011;11491;41.942;24.220;2024-01-15T06:38:57;177.03;;;100.57;;
22648;SDS011;11491;41.942;24.220;2024-01-15T06:41:24;217.57;;;115.80;;
22648;SDS011;11491;41.942;24.220;2024-01-15T06:43:51;235.47;;;129.63;;
22648;SDS011;11491;41.942;24.220;2024-01-15T06:46:19;228.83;;;122.80;;
22648;SDS011;11491;41.942;24.220;2024-01-15T06:48:47;218.63;;;127.50;;
22648;SDS011;11491;41.942;24.220;2024-01-15T06:51:14;238.40;;;131.63;;
22648;SDS011;11491;41.942;24.220;2024-01-15T06:53:41;229.90;;;126.00;;
22648;SDS011;11491;41.942;24.220;2024-01-15T06:56:09;263.80;;;140.73;;
22648;SDS011;11491;41.942;24.220;2024-01-15T06:58:36;238.57;;;141.13;;
22648;SDS011;11491;41.942;24.220;2024-01-15T07:01:03;219.30;;;128.87;;
22648;SDS011;11491;41.942;24.220;2024-01-15T07:03:30;226.23;;;126.77;;
22648;SDS011;11491;41.942;24.220;2024-01-15T07:05:57;203.43;;;115.17;;
22648;SDS011;11491;41.942;24.220;2024-01-15T07:08:24;193.10;;;113.90;;
22648;SDS011;11491;41.942;24.220;2024-01-15T07:10:51;256.80;;;139.90;;
22648;SDS011;11491;41.942;24.220;2024-01-15T07:13:19;317.77;;;185.27;;
22648;SDS011;11491;41.942;24.220;2024-01-15T07:15:46;384.73;;;238.50;;
22648;SDS011;11491;41.942;24.220;2024-01-15T07:18:12;370.23;;;224.93;;
22648;SDS011;11491;41.942;24.220;2024-01-15T07:20:39;372.67;;;234.37;;
22648;SDS011;11491;41.942;24.220;2024-01-15T07:23:06;353.83;;;223.38;;
22648;SDS011;11491;41.942;24.220;2024-01-15T07:25:33;357.38;;;221.68;;
22648;SDS011;11491;41.942;24.220;2024-01-15T07:27:59;330.33;;;206.63;;
22648;SDS011;11491;41.942;24.220;2024-01-15T07:30:28;326.57;;;207.27;;
22648;SDS011;11491;41.942;24.220;2024-01-15T07:32:54;340.65;;;210.40;;
22648;SDS011;11491;41.942;24.220;2024-01-15T07:35:21;320.90;;;203.65;;
22648;SDS011;11491;41.942;24.220;2024-01-15T07:37:48;241.55;;;143.93;;
22648;SDS011;11491;41.942;24.220;2024-01-15T07:40:15;338.23;;;207.25;;
22648;SDS011;11491;41.942;24.220;2024-01-15T07:42:41;298.48;;;185.00;;
22648;SDS011;11491;41.942;24.220;2024-01-15T07:45:08;567.30;;;288.33;;
22648;SDS011;11491;41.942;24.220;2024-01-15T07:47:37;305.77;;;175.15;;
22648;SDS011;11491;41.942;24.220;2024-01-15T07:50:04;262.40;;;157.27;;
22648;SDS011;11491;41.942;24.220;2024-01-15T07:52:31;285.58;;;163.10;;
22648;SDS011;11491;41.942;24.220;2024-01-15T07:54:58;256.20;;;154.13;;
22648;SDS011;11491;41.942;24.220;2024-01-15T07:57:25;301.52;;;180.52;;
22648;SDS011;11491;41.942;24.220;2024-01-15T07:59:52;399.13;;;248.80;;
22648;SDS011;11491;41.942;24.220;2024-01-15T08:02:19;432.83;;;265.98;;
22648;SDS011;11491;41.942;24.220;2024-01-15T08:04:48;390.58;;;245.90;;
22648;SDS011;11491;41.942;24.220;2024-01-15T08:07:14;407.15;;;253.82;;
22648;SDS011;11491;41.942;24.220;2024-01-15T08:09:42;336.85;;;209.25;;
22648;SDS011;11491;41.942;24.220;2024-01-15T08:12:09;320.42;;;197.52;;
22648;SDS011;11491;41.942;24.220;2024-01-15T08:14:36;228.70;;;137.55;;
22648;SDS011;11491;41.942;24.220;2024-01-15T08:17:03;211.57;;;129.25;;
22648;SDS011;11491;41.942;24.220;2024-01-15T08:19:30;203.50;;;126.57;;
22648;SDS011;11491;41.942;24.220;2024-01-15T08:21:58;165.60;;;107.82;;
22648;SDS011;11491;41.942;24.220;2024-01-15T08:24:25;151.30;;;96.97;;
22648;SDS011;11491;41.942;24.220;2024-01-15T08:26:52;127.25;;;83.28;;
22648;SDS011;11491;41.942;24.220;2024-01-15T08:29:18;84.38;;;54.85;;
22648;SDS011;11491;41.942;24.220;2024-01-15T08:31:46;100.10;;;59.05;;
22648;SDS011;11491;41.942;24.220;2024-01-15T08:34:12;84.53;;;55.53;;
22648;SDS011;11491;41.942;24.220;2024-01-15T08:36:39;110.75;;;70.68;;
22648;SDS011;11491;41.942;24.220;2024-01-15T08:39:08;108.70;;;66.57;;
22648;SDS011;11491;41.942;24.220;2024-01-15T08:41:35;104.57;;;57.58;;
22648;SDS011;11491;41.942;24.220;2024-01-15T08:44:01;92.72;;;53.53;;
22648;SDS011;11491;41.942;24.220;2024-01-15T08:46:28;93.15;;;55.83;;
22648;SDS011;11491;41.942;24.220;2024-01-15T08:48:55;94.47;;;58.53;;
22648;SDS011;11491;41.942;24.220;2024-01-15T08:51:22;106.78;;;65.95;;
22648;SDS011;11491;41.942;24.220;2024-01-15T08:53:49;126.35;;;75.20;;
22648;SDS011;11491;41.942;24.220;2024-01-15T08:56:17;139.68;;;79.70;;
22648;SDS011;11491;41.942;24.220;2024-01-15T08:58:43;117.43;;;71.30;;
22648;SDS011;11491;41.942;24.220;2024-01-15T09:01:11;115.40;;;68.50;;
22648;SDS011;11491;41.942;24.220;2024-01-15T09:03:38;101.70;;;62.88;;
22648;SDS011;11491;41.942;24.220;2024-01-15T09:06:06;116.53;;;75.35;;
22648;SDS011;11491;41.942;24.220;2024-01-15T09:08:34;130.80;;;84.07;;
22648;SDS011;11491;41.942;24.220;2024-01-15T09:11:01;132.10;;;87.38;;
22648;SDS011;11491;41.942;24.220;2024-01-15T09:13:32;136.73;;;87.63;;
22648;SDS011;11491;41.942;24.220;2024-01-15T09:15:59;188.80;;;122.25;;
22648;SDS011;11491;41.942;24.220;2024-01-15T09:18:26;112.97;;;74.22;;
22648;SDS011;11491;41.942;24.220;2024-01-15T09:20:53;117.80;;;74.55;;
22648;SDS011;11491;41.942;24.220;2024-01-15T09:23:19;84.88;;;57.90;;
22648;SDS011;11491;41.942;24.220;2024-01-15T09:25:46;86.60;;;58.83;;
22648;SDS011;11491;41.942;24.220;2024-01-15T09:28:13;78.60;;;55.80;;
22648;SDS011;11491;41.942;24.220;2024-01-15T09:30:42;77.88;;;55.95;;
22648;SDS011;11491;41.942;24.220;2024-01-15T09:33:10;75.07;;;52.45;;
22648;SDS011;11491;41.942;24.220;2024-01-15T09:35:36;73.82;;;51.65;;
22648;SDS011;11491;41.942;24.220;2024-01-15T09:38:03;81.75;;;59.83;;
22648;SDS011;11491;41.942;24.220;2024-01-15T09:40:31;165.00;;;112.22;;
22648;SDS011;11491;41.942;24.220;2024-01-15T09:42:59;175.05;;;116.55;;
22648;SDS011;11491;41.942;24.220;2024-01-15T09:45:27;132.88;;;88.53;;
22648;SDS011;11491;41.942;24.220;2024-01-15T09:47:57;148.80;;;97.72;;
22648;SDS011;11491;41.942;24.220;2024-01-15T09:50:23;142.98;;;96.70;;
22648;SDS011;11491;41.942;24.220;2024-01-15T09:52:51;123.55;;;87.15;;
22648;SDS011;11491;41.942;24.220;2024-01-15T09:55:19;97.78;;;63.28;;
22648;SDS011;11491;41.942;24.220;2024-01-15T09:57:46;96.13;;;60.53;;
22648;SDS011;11491;41.942;24.220;2024-01-15T10:00:12;133.75;;;67.88;;
22648;SDS011;11491;41.942;24.220;2024-01-15T10:02:40;63.08;;;42.67;;
22648;SDS011;11491;41.942;24.220;2024-01-15T10:05:09;40.40;;;28.02;;
22648;SDS011;11491;41.942;24.220;2024-01-15T10:07:36;27.65;;;19.77;;
22648;SDS011;11491;41.942;24.220;2024-01-15T10:10:04;45.67;;;31.63;;
22648;SDS011;11491;41.942;24.220;2024-01-15T10:12:32;38.35;;;22.33;;
22648;SDS011;11491;41.942;24.220;2024-01-15T10:14:59;41.17;;;25.35;;
22648;SDS011;11491;41.942;24.220;2024-01-15T10:17:27;16.33;;;12.35;;
22648;SDS011;11491;41.942;24.220;2024-01-15T10:19:56;29.67;;;22.25;;
22648;SDS011;11491;41.942;24.220;2024-01-15T10:22:24;20.73;;;13.25;;
22648;SDS011;11491;41.942;24.220;2024-01-15T10:24:52;44.38;;;29.40;;
22648;SDS011;11491;41.942;24.220;2024-01-15T10:27:18;16.48;;;12.00;;
22648;SDS011;11491;41.942;24.220;2024-01-15T10:29:45;24.70;;;16.60;;
22648;SDS011;11491;41.942;24.220;2024-01-15T10:32:12;13.35;;;10.10;;
22648;SDS011;11491;41.942;24.220;2024-01-15T10:34:39;24.83;;;20.25;;
22648;SDS011;11491;41.942;24.220;2024-01-15T10:37:07;45.17;;;31.85;;
22648;SDS011;11491;41.942;24.220;2024-01-15T10:39:35;49.28;;;34.03;;
22648;SDS011;11491;41.942;24.220;2024-01-15T10:42:03;25.08;;;17.75;;
22648;SDS011;11491;41.942;24.220;2024-01-15T10:44:30;48.95;;;28.15;;
22648;SDS011;11491;41.942;24.220;2024-01-15T10:46:57;62.70;;;39.30;;
22648;SDS011;11491;41.942;24.220;2024-01-15T10:49:24;65.38;;;40.15;;
22648;SDS011;11491;41.942;24.220;2024-01-15T10:51:53;57.80;;;35.47;;
22648;SDS011;11491;41.942;24.220;2024-01-15T10:54:20;29.05;;;15.73;;
22648;SDS011;11491;41.942;24.220;2024-01-15T10:56:50;13.18;;;8.88;;
22648;SDS011;11491;41.942;24.220;2024-01-15T10:59:18;8.85;;;6.05;;
22648;SDS011;11491;41.942;24.220;2024-01-15T11:01:47;9.02;;;4.60;;
22648;SDS011;11491;41.942;24.220;2024-01-15T11:04:15;23.60;;;14.23;;
22648;SDS011;11491;41.942;24.220;2024-01-15T11:06:43;25.10;;;15.02;;
22648;SDS011;11491;41.942;24.220;2024-01-15T11:09:11;18.42;;;9.95;;
22648;SDS011;11491;41.942;24.220;2024-01-15T11:11:40;13.98;;;8.18;;
22648;SDS011;11491;41.942;24.220;2024-01-15T11:14:09;15.15;;;9.00;;
22648;SDS011;11491;41.942;24.220;2024-01-15T11:19:19;16.37;;;11.07;;
22648;SDS011;11491;41.942;24.220;2024-01-15T11:21:46;13.90;;;7.97;;
22648;SDS011;11491;41.942;24.220;2024-01-15T11:24:32;8.82;;;4.93;;
22648;SDS011;11491;41.942;24.220;2024-01-15T11:27:01;13.50;;;8.88;;
22648;SDS011;11491;41.942;24.220;2024-01-15T11:29:30;16.25;;;12.93;;
22648;SDS011;11491;41.942;24.220;2024-01-15T11:31:59;30.35;;;13.45;;
22648;SDS011;11491;41.942;24.220;2024-01-15T11:37:19;8.93;;;5.30;;
22648;SDS011;11491;41.942;24.220;2024-01-15T11:39:47;9.07;;;5.78;;
22648;SDS011;11491;41.942;24.220;2024-01-15T11:42:14;7.43;;;4.88;;
22648;SDS011;11491;41.942;24.220;2024-01-15T11:44:43;4.07;;;2.95;;
22648;SDS011;11491;41.942;24.220;2024-01-15T11:47:10;5.70;;;3.42;;
22648;SDS011;11491;41.942;24.220;2024-01-15T11:52:28;9.32;;;7.57;;
22648;SDS011;11491;41.942;24.220;2024-01-15T11:57:46;16.98;;;13.50;;
22648;SDS011;11491;41.942;24.220;2024-01-15T12:00:17;7.95;;;5.30;;
22648;SDS011;11491;41.942;24.220;2024-01-15T12:02:45;12.55;;;7.53;;
22648;SDS011;11491;41.942;24.220;2024-01-15T12:05:13;6.00;;;2.88;;
22648;SDS011;11491;41.942;24.220;2024-01-15T12:07:41;8.35;;;5.80;;
22648;SDS011;11491;41.942;24.220;2024-01-15T12:10:09;6.45;;;4.20;;
22648;SDS011;11491;41.942;24.220;2024-01-15T12:12:39;11.07;;;5.88;;
22648;SDS011;11491;41.942;24.220;2024-01-15T12:15:15;16.23;;;9.63;;
22648;SDS011;11491;41.942;24.220;2024-01-15T12:17:43;28.30;;;19.42;;
22648;SDS011;11491;41.942;24.220;2024-01-15T12:20:12;31.55;;;25.40;;
22648;SDS011;11491;41.942;24.220;2024-01-15T12:22:41;8.98;;;6.50;;
22648;SDS011;11491;41.942;24.220;2024-01-15T12:25:08;4.57;;;3.55;;
22648;SDS011;11491;41.942;24.220;2024-01-15T12:27:35;8.20;;;4.70;;
22648;SDS011;11491;41.942;24.220;2024-01-15T12:30:03;8.20;;;5.63;;
22648;SDS011;11491;41.942;24.220;2024-01-15T12:32:30;5.68;;;3.50;;
22648;SDS011;11491;41.942;24.220;2024-01-15T12:34:59;8.43;;;5.05;;
22648;SDS011;11491;41.942;24.220;2024-01-15T12:37:26;6.53;;;3.97;;
22648;SDS011;11491;41.942;24.220;2024-01-15T12:39:53;10.20;;;7.00;;
22648;SDS011;11491;41.942;24.220;2024-01-15T12:42:21;5.72;;;3.50;;
22648;SDS011;11491;41.942;24.220;2024-01-15T12:44:48;5.70;;;3.70;;
22648;SDS011;11491;41.942;24.220;2024-01-15T12:47:14;8.75;;;5.47;;
22648;SDS011;11491;41.942;24.220;2024-01-15T12:49:46;3.97;;;2.15;;
22648;SDS011;11491;41.942;24.220;2024-01-15T12:52:14;11.18;;;7.53;;
22648;SDS011;11491;41.942;24.220;2024-01-15T12:54:41;9.88;;;7.43;;
22648;SDS011;11491;41.942;24.220;2024-01-15T12:57:08;3.42;;;2.63;;
22648;SDS011;11491;41.942;24.220;2024-01-15T12:59:34;4.75;;;2.70;;
22648;SDS011;11491;41.942;24.220;2024-01-15T13:02:01;9.95;;;5.13;;
22648;SDS011;11491;41.942;24.220;2024-01-15T13:04:28;11.15;;;5.97;;
22648;SDS011;11491;41.942;24.220;2024-01-15T13:06:55;4.90;;;3.53;;
22648;SDS011;11491;41.942;24.220;2024-01-15T13:09:23;4.88;;;2.83;;
22648;SDS011;11491;41.942;24.220;2024-01-15T13:11:50;3.85;;;1.80;;
22648;SDS011;11491;41.942;24.220;2024-01-15T13:14:17;9.07;;;6.40;;
22648;SDS011;11491;41.942;24.220;2024-01-15T13:16:44;6.35;;;4.25;;
22648;SDS011;11491;41.942;24.220;2024-01-15T13:19:11;7.72;;;6.35;;
22648;SDS011;11491;41.942;24.220;2024-01-15T13:21:38;20.58;;;14.05;;
22648;SDS011;11491;41.942;24.220;2024-01-15T13:24:05;6.32;;;4.57;;
22648;SDS011;11491;41.942;24.220;2024-01-15T13:26:33;19.67;;;9.05;;
22648;SDS011;11491;41.942;24.220;2024-01-15T13:29:01;9.68;;;7.07;;
22648;SDS011;11491;41.942;24.220;2024-01-15T13:31:28;26.30;;;20.20;;
22648;SDS011;11491;41.942;24.220;2024-01-15T13:33:55;15.32;;;11.15;;
22648;SDS011;11491;41.942;24.220;2024-01-15T13:36:23;4.63;;;3.38;;
22648;SDS011;11491;41.942;24.220;2024-01-15T13:38:49;9.45;;;6.82;;
22648;SDS011;11491;41.942;24.220;2024-01-15T13:41:16;8.77;;;5.40;;
22648;SDS011;11491;41.942;24.220;2024-01-15T13:43:48;11.35;;;7.93;;
22648;SDS011;11491;41.942;24.220;2024-01-15T13:46:18;8.50;;;6.03;;
22648;SDS011;11491;41.942;24.220;2024-01-15T13:48:45;7.97;;;5.45;;
22648;SDS011;11491;41.942;24.220;2024-01-15T13:51:11;9.05;;;5.20;;
22648;SDS011;11491;41.942;24.220;2024-01-15T13:53:38;27.27;;;14.40;;
22648;SDS011;11491;41.942;24.220;2024-01-15T13:56:05;9.63;;;7.40;;
22648;SDS011;11491;41.942;24.220;2024-01-15T13:58:32;5.30;;;3.55;;
22648;SDS011;11491;41.942;24.220;2024-01-15T14:01:01;12.15;;;6.28;;
22648;SDS011;11491;41.942;24.220;2024-01-15T14:03:29;9.15;;;6.57;;
22648;SDS011;11491;41.942;24.220;2024-01-15T14:05:56;14.57;;;6.88;;
22648;SDS011;11491;41.942;24.220;2024-01-15T14:08:23;7.22;;;4.05;;
22648;SDS011;11491;41.942;24.220;2024-01-15T14:10:50;34.50;;;11.60;;
22648;SDS011;11491;41.942;24.220;2024-01-15T14:13:17;5.68;;;2.97;;
22648;SDS011;11491;41.942;24.220;2024-01-15T14:15:43;8.82;;;4.80;;
22648;SDS011;11491;41.942;24.220;2024-01-15T14:18:12;26.75;;;12.98;;
22648;SDS011;11491;41.942;24.220;2024-01-15T14:20:38;14.60;;;8.85;;
22648;SDS011;11491;41.942;24.220;2024-01-15T14:23:05;24.38;;;13.20;;
22648;SDS011;11491;41.942;24.220;2024-01-15T14:25:32;6.28;;;4.32;;